createdAt,value
2018-05-12T00:00:00.057Z,97.08
2018-05-12T00:01:08.114Z,97.36
2018-05-12T00:02:16.164Z,97.36
2018-05-12T00:03:24.237Z,97.56
2018-05-12T00:04:32.287Z,97.27
2018-05-12T00:05:40.332Z,97.94
2018-05-12T00:06:48.401Z,97.84
2018-05-12T00:07:56.474Z,98.22
2018-05-12T00:09:04.535Z,98.22
2018-05-12T00:10:12.600Z,98.13
2018-05-12T00:11:20.653Z,98.32
2018-05-12T00:12:28.731Z,98.13
2018-05-12T00:13:36.801Z,98.13
2018-05-12T00:14:44.854Z,98.22
2018-05-12T00:15:52.928Z,97.17
2018-05-12T00:17:00.960Z,98.03
2018-05-12T00:18:09.045Z,97.75
2018-05-12T00:19:17.107Z,97.94
2018-05-12T00:20:25.163Z,98.13
2018-05-12T00:21:33.210Z,98.13
2018-05-12T00:22:41.282Z,97.84
2018-05-12T00:23:49.339Z,98.13
2018-05-12T00:24:57.396Z,98.13
2018-05-12T00:26:05.505Z,98.03
2018-05-12T00:27:13.520Z,98.70
2018-05-12T00:28:21.580Z,98.70
2018-05-12T00:29:29.671Z,98.03
2018-05-12T00:30:37.717Z,98.22
2018-05-12T00:31:45.763Z,97.65
2018-05-12T00:32:53.842Z,97.94
2018-05-12T00:34:01.892Z,98.03
2018-05-12T00:35:09.944Z,98.22
2018-05-12T00:36:18.025Z,97.84
2018-05-12T00:37:26.076Z,97.65
2018-05-12T00:38:34.154Z,97.75
2018-05-12T00:39:42.198Z,98.41
2018-05-12T00:40:50.262Z,98.32
2018-05-12T00:41:58.327Z,97.84
2018-05-12T00:43:06.392Z,97.75
2018-05-12T00:44:14.450Z,98.41
2018-05-12T00:45:22.509Z,98.41
2018-05-12T00:46:30.577Z,98.32
2018-05-12T00:47:38.627Z,98.70
2018-05-12T00:48:46.690Z,98.41
2018-05-12T00:49:54.764Z,98.74
2018-05-12T00:51:02.801Z,98.27
2018-05-12T00:52:10.886Z,98.94
2018-05-12T00:53:18.945Z,98.55
2018-05-12T00:54:26.987Z,98.55
2018-05-12T00:55:35.050Z,98.46
2018-05-12T00:56:43.136Z,98.46
2018-05-12T00:57:51.163Z,98.94
2018-05-12T00:58:59.226Z,98.94
2018-05-12T01:00:07.295Z,99.03
2018-05-12T01:01:15.349Z,98.46
2018-05-12T01:02:23.406Z,98.74
2018-05-12T01:03:31.483Z,99.03
2018-05-12T01:04:39.547Z,99.32
2018-05-12T01:05:47.596Z,99.08
2018-05-12T01:06:55.651Z,98.74
2018-05-12T01:08:03.732Z,99.32
2018-05-12T01:09:11.763Z,98.94
2018-05-12T01:10:19.831Z,99.13
2018-05-12T01:11:27.920Z,99.22
2018-05-12T01:12:35.960Z,99.32
2018-05-12T01:13:44.040Z,98.94
2018-05-12T01:14:52.088Z,99.32
2018-05-12T01:16:00.155Z,98.84
2018-05-12T01:17:08.221Z,99.03
2018-05-12T01:18:16.288Z,98.74
2018-05-12T01:19:24.342Z,99.22
2018-05-12T01:20:32.388Z,99.27
2018-05-12T01:21:40.460Z,98.84
2018-05-12T01:22:48.540Z,99.22
2018-05-12T01:23:56.590Z,99.22
2018-05-12T01:25:04.663Z,98.94
2018-05-12T01:26:12.715Z,99.60
2018-05-12T01:27:20.769Z,98.55
2018-05-12T01:28:28.813Z,99.22
2018-05-12T01:29:36.883Z,99.51
2018-05-12T01:30:44.958Z,99.32
2018-05-12T01:31:52.998Z,99.41
2018-05-12T01:33:01.061Z,99.32
2018-05-12T01:34:09.139Z,99.41
2018-05-12T01:35:17.191Z,99.03
2018-05-12T01:36:25.260Z,99.69
2018-05-12T01:37:33.309Z,99.99
2018-05-12T01:38:41.365Z,99.99
2018-05-12T01:39:49.461Z,99.41
2018-05-12T01:40:57.470Z,99.99
2018-05-12T01:42:05.571Z,99.98
2018-05-12T01:43:13.613Z,99.98
2018-05-12T01:44:21.668Z,99.99
2018-05-12T01:45:29.740Z,99.99
2018-05-12T01:46:37.792Z,99.99
2018-05-12T01:47:45.882Z,99.99
2018-05-12T01:48:53.932Z,99.99
2018-05-12T01:50:01.962Z,99.99
2018-05-12T01:51:10.029Z,99.99
2018-05-12T01:52:18.098Z,99.99
2018-05-12T01:53:26.174Z,99.99
2018-05-12T01:54:34.239Z,99.99
2018-05-12T01:55:42.298Z,99.99
2018-05-12T01:56:50.371Z,99.99
2018-05-12T01:57:58.411Z,99.99
2018-05-12T01:59:06.470Z,99.99
2018-05-12T02:00:14.545Z,99.98
2018-05-12T02:01:22.600Z,99.99
2018-05-12T02:02:30.646Z,99.99
2018-05-12T02:03:38.728Z,99.99
2018-05-12T02:04:46.794Z,99.99
2018-05-12T02:05:54.849Z,99.99
2018-05-12T02:07:02.905Z,99.99
2018-05-12T02:08:10.944Z,99.99
2018-05-12T02:09:18.999Z,99.99
2018-05-12T02:10:27.081Z,99.99
2018-05-12T02:11:35.161Z,99.99
2018-05-12T02:12:43.213Z,99.99
2018-05-12T02:13:51.247Z,99.99
2018-05-12T02:14:59.313Z,99.99
2018-05-12T02:16:07.402Z,99.99
2018-05-12T02:17:15.496Z,99.99
2018-05-12T02:18:23.519Z,99.99
2018-05-12T02:19:31.529Z,99.99
2018-05-12T02:20:39.619Z,99.99
2018-05-12T02:21:47.702Z,99.99
2018-05-12T02:22:55.744Z,99.99
2018-05-12T02:24:03.829Z,99.55
2018-05-12T02:25:11.870Z,99.99
2018-05-12T02:26:19.946Z,99.93
2018-05-12T02:27:27.988Z,99.99
2018-05-12T02:28:36.055Z,99.99
2018-05-12T02:29:44.098Z,99.99
2018-05-12T02:30:52.171Z,99.99
2018-05-12T02:32:00.254Z,99.99
2018-05-12T02:33:08.295Z,99.99
2018-05-12T02:34:16.360Z,99.99
2018-05-12T02:35:24.439Z,99.99
2018-05-12T02:36:32.483Z,99.99
2018-05-12T02:37:40.545Z,99.99
2018-05-12T02:38:48.599Z,99.99
2018-05-12T02:39:56.678Z,99.99
2018-05-12T02:41:04.726Z,99.99
2018-05-12T02:42:12.774Z,99.99
2018-05-12T02:43:20.872Z,99.99
2018-05-12T02:44:28.921Z,99.99
2018-05-12T02:45:36.987Z,99.99
2018-05-12T02:46:45.018Z,99.99
2018-05-12T02:47:53.109Z,99.99
2018-05-12T02:49:01.161Z,99.99
2018-05-12T02:50:09.208Z,99.99
2018-05-12T02:51:17.246Z,99.99
2018-05-12T02:52:25.309Z,99.99
2018-05-12T02:53:33.367Z,99.99
2018-05-12T02:54:41.433Z,99.99
2018-05-12T02:55:49.520Z,99.99
2018-05-12T02:56:57.574Z,99.99
2018-05-12T02:58:05.618Z,99.99
2018-05-12T02:59:13.670Z,99.99
2018-05-12T03:00:21.738Z,99.99
2018-05-12T03:01:29.819Z,99.99
2018-05-12T03:02:37.865Z,99.99
2018-05-12T03:03:45.924Z,99.99
2018-05-12T03:04:54.016Z,99.99
2018-05-12T03:06:02.040Z,99.99
2018-05-12T03:07:10.118Z,99.99
2018-05-12T03:08:18.171Z,99.99
2018-05-12T03:09:26.245Z,99.99
2018-05-12T03:10:34.297Z,99.99
2018-05-12T03:11:42.351Z,99.99
2018-05-12T03:12:50.406Z,99.99
2018-05-12T03:13:58.495Z,99.99
2018-05-12T03:15:07.041Z,99.99
2018-05-12T03:16:14.601Z,99.99
2018-05-12T03:17:22.650Z,99.99
2018-05-12T03:18:30.725Z,99.99
2018-05-12T03:19:38.782Z,99.99
2018-05-12T03:20:46.857Z,99.99
2018-05-12T03:21:54.898Z,99.99
2018-05-12T03:23:02.950Z,99.99
2018-05-12T03:24:10.995Z,99.99
2018-05-12T03:25:19.071Z,99.99
2018-05-12T03:26:27.128Z,99.99
2018-05-12T03:27:35.196Z,99.99
2018-05-12T03:28:43.245Z,99.99
2018-05-12T03:29:51.309Z,99.99
2018-05-12T03:30:59.384Z,99.99
2018-05-12T03:32:07.431Z,99.99
2018-05-12T03:33:15.498Z,99.99
2018-05-12T03:34:23.562Z,99.99
2018-05-12T03:35:31.609Z,99.99
2018-05-12T03:36:39.806Z,99.99
2018-05-12T03:37:47.727Z,99.99
2018-05-12T03:38:55.797Z,99.99
2018-05-12T03:40:03.842Z,99.99
2018-05-12T03:41:11.904Z,99.99
2018-05-12T03:42:19.993Z,99.99
2018-05-12T03:43:28.072Z,99.99
2018-05-12T03:44:36.573Z,99.99
2018-05-12T03:45:44.159Z,99.99
2018-05-12T03:46:52.222Z,99.99
2018-05-12T03:48:00.778Z,99.99
2018-05-12T03:49:08.637Z,99.99
2018-05-12T03:50:16.471Z,99.99
2018-05-12T03:51:24.457Z,99.99
2018-05-12T03:52:32.522Z,99.99
2018-05-12T03:53:40.582Z,99.99
2018-05-12T03:54:49.269Z,99.99
2018-05-12T03:55:56.686Z,99.99
2018-05-12T03:57:04.778Z,99.99
2018-05-12T03:58:12.822Z,99.99
2018-05-12T03:59:20.886Z,99.99
2018-05-12T04:00:28.957Z,99.99
2018-05-12T04:01:36.994Z,99.99
2018-05-12T04:02:45.046Z,99.99
2018-05-12T04:03:53.122Z,99.99
2018-05-12T04:05:01.171Z,99.99
2018-05-12T04:06:09.645Z,99.99
2018-05-12T04:07:17.892Z,99.99
2018-05-12T04:08:25.906Z,99.99
2018-05-12T04:09:33.957Z,99.99
2018-05-12T04:10:41.554Z,99.99
2018-05-12T04:11:49.543Z,99.99
2018-05-12T04:12:57.606Z,99.99
2018-05-12T04:14:05.669Z,99.99
2018-05-12T04:15:13.730Z,99.99
2018-05-12T04:16:22.316Z,99.99
2018-05-12T04:17:36.674Z,99.99
2018-05-12T04:18:37.900Z,99.99
2018-05-12T04:19:46.575Z,99.99
2018-05-12T04:20:54.375Z,99.99
2018-05-12T04:22:02.064Z,99.99
2018-05-12T04:23:10.151Z,99.99
2018-05-12T04:24:18.213Z,99.99
2018-05-12T04:25:26.273Z,99.99
2018-05-12T04:26:34.325Z,99.99
2018-05-12T04:27:42.392Z,99.99
2018-05-12T04:28:50.457Z,99.99
2018-05-12T04:29:58.515Z,99.99
2018-05-12T04:31:06.578Z,99.99
2018-05-12T04:32:14.638Z,99.99
2018-05-12T04:33:22.689Z,99.99
2018-05-12T04:34:30.749Z,99.99
2018-05-12T04:35:38.814Z,99.99
2018-05-12T04:36:46.974Z,99.99
2018-05-12T04:37:54.920Z,99.99
2018-05-12T04:39:02.991Z,99.99
2018-05-12T04:40:11.060Z,99.99
2018-05-12T04:41:19.292Z,99.99
2018-05-12T04:42:27.181Z,99.99
2018-05-12T04:43:35.230Z,99.99
2018-05-12T04:44:43.312Z,99.99
2018-05-12T04:45:51.617Z,99.99
2018-05-12T04:46:59.427Z,99.99
2018-05-12T04:48:07.475Z,99.99
2018-05-12T04:49:15.566Z,99.89
2018-05-12T04:50:23.606Z,99.99
2018-05-12T04:51:31.653Z,99.99
2018-05-12T04:52:39.752Z,99.99
2018-05-12T04:53:47.784Z,99.99
2018-05-12T04:54:55.862Z,99.99
2018-05-12T04:56:03.911Z,99.99
2018-05-12T04:57:11.950Z,99.99
2018-05-12T04:58:20.053Z,99.70
2018-05-12T04:59:28.112Z,99.80
2018-05-12T05:00:36.186Z,99.80
2018-05-12T05:01:44.224Z,99.51
2018-05-12T05:02:52.300Z,99.41
2018-05-12T05:04:00.354Z,99.66
2018-05-12T05:05:08.426Z,98.99
2018-05-12T05:06:16.484Z,99.37
2018-05-12T05:07:24.532Z,99.75
2018-05-12T05:08:32.608Z,99.27
2018-05-12T05:09:40.676Z,99.18
2018-05-12T05:10:48.734Z,98.90
2018-05-12T05:11:56.785Z,99.37
2018-05-12T05:13:04.850Z,99.75
2018-05-12T05:14:14.408Z,98.70
2018-05-12T05:15:21.111Z,99.37
2018-05-12T05:16:29.484Z,99.18
2018-05-12T05:17:37.436Z,99.27
2018-05-12T05:18:45.469Z,99.46
2018-05-12T05:19:53.227Z,99.46
2018-05-12T05:21:01.294Z,98.80
2018-05-12T05:22:09.342Z,99.56
2018-05-12T05:23:17.421Z,99.66
2018-05-12T05:24:25.484Z,99.37
2018-05-12T05:25:33.544Z,98.42
2018-05-12T05:26:41.574Z,99.18
2018-05-12T05:27:49.661Z,98.80
2018-05-12T05:28:57.730Z,99.27
2018-05-12T05:30:05.776Z,99.37
2018-05-12T05:31:13.875Z,99.08
2018-05-12T05:32:21.892Z,99.18
2018-05-12T05:33:29.976Z,98.70
2018-05-12T05:34:38.047Z,99.08
2018-05-12T05:35:46.096Z,99.66
2018-05-12T05:36:54.162Z,99.85
2018-05-12T05:38:02.231Z,99.56
2018-05-12T05:39:10.285Z,99.66
2018-05-12T05:40:18.344Z,99.37
2018-05-12T05:41:26.417Z,99.37
2018-05-12T05:42:34.561Z,99.75
2018-05-12T05:43:42.547Z,98.99
2018-05-12T05:44:50.593Z,99.46
2018-05-12T05:45:58.664Z,99.04
2018-05-12T05:47:06.725Z,99.13
2018-05-12T05:48:14.791Z,99.32
2018-05-12T05:49:22.859Z,98.66
2018-05-12T05:50:30.924Z,99.04
2018-05-12T05:51:38.981Z,98.27
2018-05-12T05:52:47.033Z,97.32
2018-05-12T05:53:55.101Z,98.18
2018-05-12T05:55:03.169Z,98.13
2018-05-12T05:56:11.217Z,97.99
2018-05-12T05:57:19.294Z,98.32
2018-05-12T05:58:27.384Z,98.52
2018-05-12T05:59:35.413Z,98.32
2018-05-12T06:00:43.480Z,96.98
2018-05-12T06:01:51.545Z,96.80
2018-05-12T06:02:59.609Z,96.13
2018-05-12T06:04:07.689Z,95.94
2018-05-12T06:05:15.735Z,96.08
2018-05-12T06:06:23.799Z,94.93
2018-05-12T06:07:31.839Z,95.22
2018-05-12T06:08:39.931Z,94.46
2018-05-12T06:09:47.994Z,93.41
2018-05-12T06:10:56.082Z,93.02
2018-05-12T06:12:04.110Z,92.64
2018-05-12T06:13:12.162Z,92.93
2018-05-12T06:14:20.245Z,93.84
2018-05-12T06:15:28.309Z,92.88
2018-05-12T06:16:36.369Z,92.88
2018-05-12T06:17:44.424Z,91.83
2018-05-12T06:18:52.492Z,91.83
2018-05-12T06:20:00.567Z,91.64
2018-05-12T06:21:08.626Z,91.16
2018-05-12T06:22:16.685Z,91.06
2018-05-12T06:23:24.746Z,90.01
2018-05-12T06:24:32.843Z,90.44
2018-05-12T06:25:40.872Z,90.25
2018-05-12T06:26:48.938Z,89.58
2018-05-12T06:27:57.245Z,89.77
2018-05-12T06:29:05.069Z,89.58
2018-05-12T06:30:13.153Z,89.01
2018-05-12T06:31:21.202Z,88.91
2018-05-12T06:32:29.263Z,88.34
2018-05-12T06:33:37.339Z,89.01
2018-05-12T06:34:45.395Z,89.87
2018-05-12T06:35:53.913Z,89.01
2018-05-12T06:37:01.489Z,86.94
2018-05-12T06:38:09.581Z,88.09
2018-05-12T06:39:17.657Z,88.38
2018-05-12T06:40:25.704Z,89.05
2018-05-12T06:41:37.499Z,86.85
2018-05-12T06:42:42.483Z,87.04
2018-05-12T06:43:49.899Z,86.47
2018-05-12T06:44:57.977Z,85.61
2018-05-12T06:46:06.033Z,86.41
2018-05-12T06:47:14.084Z,87.18
2018-05-12T06:48:22.155Z,86.32
2018-05-12T06:49:30.230Z,83.45
2018-05-12T06:50:38.284Z,83.49
2018-05-12T06:51:46.351Z,84.16
2018-05-12T06:52:54.542Z,83.39
2018-05-12T06:54:02.483Z,83.01
2018-05-12T06:55:10.567Z,83.49
2018-05-12T06:56:18.605Z,80.27
2018-05-12T06:57:26.678Z,82.09
2018-05-12T06:58:34.756Z,82.29
2018-05-12T06:59:42.823Z,81.52
2018-05-12T07:00:50.866Z,80.27
2018-05-12T07:01:58.949Z,80.76
2018-05-12T07:03:07.018Z,81.71
2018-05-12T07:04:15.084Z,81.37
2018-05-12T07:05:23.154Z,81.46
2018-05-12T07:06:31.197Z,79.07
2018-05-12T07:07:39.278Z,81.33
2018-05-12T07:08:47.329Z,79.80
2018-05-12T07:09:55.411Z,80.76
2018-05-12T07:11:03.487Z,80.51
2018-05-12T07:12:11.537Z,78.02
2018-05-12T07:13:19.608Z,78.20
2018-05-12T07:14:27.662Z,77.73
2018-05-12T07:15:35.741Z,78.15
2018-05-12T07:16:43.793Z,79.05
2018-05-12T07:17:52.302Z,75.21
2018-05-12T07:18:59.942Z,74.77
2018-05-12T07:20:07.994Z,73.85
2018-05-12T07:21:16.064Z,73.56
2018-05-12T07:22:24.138Z,73.37
2018-05-12T07:23:32.367Z,70.49
2018-05-12T07:24:40.271Z,69.56
2018-05-12T07:25:48.334Z,70.72
2018-05-12T07:26:56.434Z,69.60
2018-05-12T07:28:04.495Z,69.56
2018-05-12T07:29:12.557Z,69.98
2018-05-12T07:30:20.616Z,67.22
2018-05-12T07:31:28.675Z,65.91
2018-05-12T07:32:36.747Z,65.94
2018-05-12T07:33:44.824Z,63.44
2018-05-12T07:34:52.931Z,61.55
2018-05-12T07:36:00.967Z,61.19
2018-05-12T07:37:09.032Z,58.30
2018-05-12T07:38:17.112Z,58.81
2018-05-12T07:39:25.187Z,61.29
2018-05-12T07:40:33.263Z,62.80
2018-05-12T07:41:41.316Z,62.96
2018-05-12T07:42:49.406Z,60.39
2018-05-12T07:43:57.779Z,60.42
2018-05-12T07:45:05.622Z,60.32
2018-05-12T07:46:13.620Z,61.10
2018-05-12T07:47:21.688Z,63.02
2018-05-12T07:48:29.771Z,63.76
2018-05-12T07:49:37.848Z,62.70
2018-05-12T07:50:45.920Z,61.93
2018-05-12T07:51:53.991Z,58.11
2018-05-12T07:53:02.049Z,58.55
2018-05-12T07:54:10.140Z,58.29
2018-05-12T07:55:18.201Z,56.29
2018-05-12T07:56:26.282Z,54.49
2018-05-12T07:57:34.356Z,54.58
2018-05-12T07:58:42.424Z,54.49
2018-05-12T07:59:50.500Z,53.42
2018-05-12T08:00:58.574Z,52.19
2018-05-12T08:02:06.662Z,54.53
2018-05-12T08:03:14.722Z,52.31
2018-05-12T08:04:22.792Z,48.66
2018-05-12T08:05:30.873Z,49.68
2018-05-12T08:06:38.961Z,49.68
2018-05-12T08:07:47.028Z,50.72
2018-05-12T08:08:55.108Z,50.62
2018-05-12T08:10:03.188Z,51.20
2018-05-12T08:11:11.284Z,48.61
2018-05-12T08:12:19.339Z,48.71
2018-05-12T08:13:27.452Z,49.29
2018-05-12T08:14:35.500Z,49.12
2018-05-12T08:15:43.581Z,46.99
2018-05-12T08:16:51.640Z,45.27
2018-05-12T08:17:59.758Z,46.94
2018-05-12T08:19:07.817Z,46.55
2018-05-12T08:20:15.894Z,45.97
2018-05-12T08:21:23.966Z,48.10
2018-05-12T08:22:32.028Z,44.34
2018-05-12T08:23:40.142Z,46.58
2018-05-12T08:24:48.201Z,45.41
2018-05-12T08:25:56.312Z,46.43
2018-05-12T08:27:04.375Z,45.07
2018-05-12T08:28:12.462Z,46.14
2018-05-12T08:29:20.537Z,44.90
2018-05-12T08:30:28.618Z,44.88
2018-05-12T08:31:36.753Z,46.65
2018-05-12T08:32:44.813Z,45.87
2018-05-12T08:33:52.865Z,43.93
2018-05-12T08:35:00.950Z,46.36
2018-05-12T08:36:09.025Z,46.04
2018-05-12T08:37:17.108Z,46.60
2018-05-12T08:38:25.194Z,46.60
2018-05-12T08:39:33.264Z,46.58
2018-05-12T08:40:41.336Z,47.57
2018-05-12T08:41:49.447Z,46.60
2018-05-12T08:42:57.511Z,48.25
2018-05-12T08:44:05.610Z,47.57
2018-05-12T08:45:13.680Z,46.99
2018-05-12T08:46:21.747Z,46.80
2018-05-12T08:47:29.853Z,48.15
2018-05-12T08:48:37.924Z,46.72
2018-05-12T08:49:46.014Z,47.11
2018-05-12T08:50:54.094Z,45.85
2018-05-12T08:52:02.159Z,47.40
2018-05-12T08:53:10.248Z,45.10
2018-05-12T08:54:18.336Z,45.95
2018-05-12T08:55:26.620Z,44.88
2018-05-12T08:56:34.500Z,46.43
2018-05-12T08:57:42.585Z,45.37
2018-05-12T08:58:50.679Z,46.82
2018-05-12T08:59:58.756Z,44.01
2018-05-12T09:01:06.827Z,44.74
2018-05-12T09:02:14.912Z,45.15
2018-05-12T09:03:22.994Z,47.55
2018-05-12T09:04:31.068Z,50.65
2018-05-12T09:05:39.157Z,49.77
2018-05-12T09:06:47.231Z,49.77
2018-05-12T09:07:55.321Z,51.13
2018-05-12T09:09:03.403Z,48.32
2018-05-12T09:10:11.473Z,51.01
2018-05-12T09:11:19.563Z,48.39
2018-05-12T09:12:27.641Z,49.73
2018-05-12T09:13:35.713Z,48.86
2018-05-12T09:14:43.785Z,49.63
2018-05-12T09:15:51.852Z,48.86
2018-05-12T09:16:59.955Z,52.87
2018-05-12T09:18:08.021Z,50.26
2018-05-12T09:19:16.171Z,49.19
2018-05-12T09:20:24.207Z,50.52
2018-05-12T09:21:32.253Z,48.97
2018-05-12T09:22:40.342Z,49.82
2018-05-12T09:23:48.419Z,50.67
2018-05-12T09:24:56.496Z,51.63
2018-05-12T09:26:04.576Z,51.44
2018-05-12T09:27:12.646Z,53.66
2018-05-12T09:28:20.707Z,55.49
2018-05-12T09:29:28.781Z,53.27
2018-05-12T09:30:36.869Z,52.62
2018-05-12T09:31:44.991Z,52.62
2018-05-12T09:32:53.006Z,51.07
2018-05-12T09:34:01.084Z,51.85
2018-05-12T09:35:09.144Z,50.98
2018-05-12T09:36:17.239Z,54.36
2018-05-12T09:37:25.296Z,52.81
2018-05-12T09:38:33.372Z,51.85
2018-05-12T09:39:41.444Z,52.91
2018-05-12T09:40:49.514Z,51.65
2018-05-12T09:41:57.589Z,53.20
2018-05-12T09:43:05.676Z,53.49
2018-05-12T09:44:13.735Z,49.44
2018-05-12T09:45:21.784Z,50.40
2018-05-12T09:46:29.882Z,52.65
2018-05-12T09:47:37.964Z,52.84
2018-05-12T09:48:46.034Z,53.42
2018-05-12T09:49:54.103Z,52.84
2018-05-12T09:51:02.162Z,50.33
2018-05-12T09:52:10.251Z,51.97
2018-05-12T09:53:18.323Z,51.29
2018-05-12T09:54:26.399Z,51.10
2018-05-12T09:55:34.464Z,51.87
2018-05-12T09:56:42.533Z,55.65
2018-05-12T09:57:50.594Z,49.85
2018-05-12T09:58:58.665Z,50.33
2018-05-12T10:00:06.745Z,53.33
2018-05-12T10:01:14.822Z,53.55
2018-05-12T10:02:22.883Z,51.71
2018-05-12T10:03:31.081Z,53.45
2018-05-12T10:04:39.037Z,51.42
2018-05-12T10:05:47.106Z,51.71
2018-05-12T10:06:55.189Z,50.07
2018-05-12T10:08:03.244Z,49.02
2018-05-12T10:09:11.314Z,48.16
2018-05-12T10:10:19.386Z,48.03
2018-05-12T10:11:27.467Z,52.19
2018-05-12T10:12:35.535Z,48.81
2018-05-12T10:13:43.617Z,51.68
2018-05-12T10:14:51.662Z,52.84
2018-05-12T10:15:59.751Z,51.42
2018-05-12T10:17:07.834Z,47.55
2018-05-12T10:18:15.880Z,46.95
2018-05-12T10:19:23.997Z,49.41
2018-05-12T10:20:32.027Z,51.25
2018-05-12T10:21:40.100Z,48.18
2018-05-12T10:22:48.189Z,48.64
2018-05-12T10:23:56.246Z,50.96
2018-05-12T10:25:04.330Z,54.75
2018-05-12T10:26:12.385Z,50.98
2018-05-12T10:27:20.466Z,48.69
2018-05-12T10:28:28.538Z,48.11
2018-05-12T10:29:36.607Z,49.55
2018-05-12T10:30:44.677Z,50.81
2018-05-12T10:31:52.758Z,48.52
2018-05-12T10:33:00.820Z,48.90
2018-05-12T10:34:08.884Z,49.02
2018-05-12T10:35:16.952Z,50.38
2018-05-12T10:36:25.025Z,49.41
2018-05-12T10:37:33.113Z,47.41
2018-05-12T10:38:41.174Z,42.28
2018-05-12T10:39:49.241Z,43.99
2018-05-12T10:40:57.320Z,50.48
2018-05-12T10:42:05.384Z,46.12
2018-05-12T10:43:13.466Z,46.51
2018-05-12T10:44:21.511Z,48.54
2018-05-12T10:45:29.659Z,46.03
2018-05-12T10:46:37.665Z,44.77
2018-05-12T10:47:45.742Z,43.44
2018-05-12T10:48:53.812Z,47.02
2018-05-12T10:50:01.866Z,44.67
2018-05-12T10:51:09.967Z,44.60
2018-05-12T10:52:18.021Z,47.60
2018-05-12T10:53:26.105Z,48.66
2018-05-12T10:54:34.157Z,46.05
2018-05-12T10:55:42.215Z,44.89
2018-05-12T10:56:50.319Z,45.37
2018-05-12T10:57:58.384Z,44.77
2018-05-12T10:59:06.476Z,43.90
2018-05-12T11:00:14.520Z,46.51
2018-05-12T11:01:22.591Z,47.96
2018-05-12T11:02:30.674Z,47.16
2018-05-12T11:03:38.972Z,47.58
2018-05-12T11:04:46.797Z,46.70
2018-05-12T11:05:54.890Z,44.67
2018-05-12T11:07:02.953Z,45.54
2018-05-12T11:08:11.028Z,45.28
2018-05-12T11:09:19.104Z,46.63
2018-05-12T11:10:27.161Z,44.98
2018-05-12T11:11:35.221Z,47.60
2018-05-12T11:12:43.309Z,46.15
2018-05-12T11:13:51.366Z,47.31
2018-05-12T11:14:59.458Z,46.80
2018-05-12T11:16:07.696Z,44.87
2018-05-12T11:17:15.583Z,46.25
2018-05-12T11:18:23.666Z,48.66
2018-05-12T11:19:31.752Z,46.92
2018-05-12T11:20:39.799Z,44.70
2018-05-12T11:21:47.906Z,44.50
2018-05-12T11:22:55.944Z,42.40
2018-05-12T11:24:04.017Z,42.66
2018-05-12T11:25:12.068Z,42.47
2018-05-12T11:26:20.164Z,43.01
2018-05-12T11:27:28.243Z,44.57
2018-05-12T11:28:36.304Z,47.99
2018-05-12T11:29:44.360Z,46.36
2018-05-12T11:30:52.442Z,42.59
2018-05-12T11:32:00.523Z,44.89
2018-05-12T11:33:08.602Z,46.56
2018-05-12T11:34:16.662Z,42.40
2018-05-12T11:35:24.731Z,42.30
2018-05-12T11:36:32.799Z,42.20
2018-05-12T11:37:40.874Z,45.61
2018-05-12T11:38:49.016Z,46.48
2018-05-12T11:39:57.021Z,41.17
2018-05-12T11:41:05.079Z,38.85
2018-05-12T11:42:13.162Z,39.72
2018-05-12T11:43:21.233Z,40.11
2018-05-12T11:44:29.317Z,40.31
2018-05-12T11:45:37.381Z,38.56
2018-05-12T11:46:45.450Z,38.37
2018-05-12T11:47:53.517Z,40.40
2018-05-12T11:49:01.579Z,41.86
2018-05-12T11:50:09.665Z,39.62
2018-05-12T11:51:17.755Z,38.66
2018-05-12T11:52:25.817Z,38.27
2018-05-12T11:53:33.882Z,39.34
2018-05-12T11:54:41.931Z,39.34
2018-05-12T11:55:50.012Z,38.45
2018-05-12T11:56:58.073Z,39.29
2018-05-12T11:58:06.156Z,45.88
2018-05-12T11:59:14.233Z,44.04
2018-05-12T12:00:22.300Z,43.96
2018-05-12T12:01:30.380Z,46.09
2018-05-12T12:02:38.459Z,44.27
2018-05-12T12:03:46.563Z,40.11
2018-05-12T12:04:54.584Z,41.27
2018-05-12T12:06:02.676Z,41.88
2018-05-12T12:07:10.773Z,42.26
2018-05-12T12:08:18.801Z,40.81
2018-05-12T12:09:26.867Z,39.45
2018-05-12T12:10:34.961Z,41.64
2018-05-12T12:11:43.025Z,38.62
2018-05-12T12:12:51.111Z,40.03
2018-05-12T12:13:59.170Z,41.36
2018-05-12T12:15:07.242Z,42.43
2018-05-12T12:16:15.321Z,40.98
2018-05-12T12:17:23.385Z,44.84
2018-05-12T12:18:31.442Z,43.32
2018-05-12T12:19:39.514Z,41.77
2018-05-12T12:20:47.593Z,40.05
2018-05-12T12:21:55.651Z,39.67
2018-05-12T12:23:03.742Z,41.02
2018-05-12T12:24:11.794Z,44.72
2018-05-12T12:25:19.880Z,42.40
2018-05-12T12:26:27.951Z,39.88
2018-05-12T12:27:36.026Z,41.89
2018-05-12T12:28:44.095Z,42.47
2018-05-12T12:29:52.147Z,41.89
2018-05-12T12:31:00.237Z,43.90
2018-05-12T12:32:08.303Z,45.83
2018-05-12T12:33:16.575Z,43.34
2018-05-12T12:34:24.460Z,45.28
2018-05-12T12:35:32.525Z,43.82
2018-05-12T12:36:40.579Z,42.57
2018-05-12T12:37:48.673Z,38.53
2018-05-12T12:38:56.732Z,41.21
2018-05-12T12:40:04.801Z,39.95
2018-05-12T12:41:12.880Z,42.86
2018-05-12T12:42:20.955Z,41.50
2018-05-12T12:43:29.016Z,40.05
2018-05-12T12:44:37.091Z,41.41
2018-05-12T12:45:45.159Z,39.57
2018-05-12T12:46:53.231Z,41.70
2018-05-12T12:48:01.309Z,42.49
2018-05-12T12:49:09.381Z,42.30
2018-05-12T12:50:17.444Z,41.04
2018-05-12T12:51:25.508Z,39.22
2018-05-12T12:52:33.571Z,39.12
2018-05-12T12:53:41.641Z,38.73
2018-05-12T12:54:49.731Z,36.22
2018-05-12T12:55:57.798Z,38.35
2018-05-12T12:57:05.859Z,39.41
2018-05-12T12:58:13.951Z,38.64
2018-05-12T12:59:21.999Z,39.51
2018-05-12T13:00:30.083Z,37.77
2018-05-12T13:01:38.165Z,39.51
2018-05-12T13:02:46.213Z,37.11
2018-05-12T13:03:54.300Z,38.76
2018-05-12T13:05:02.369Z,39.72
2018-05-12T13:06:10.440Z,40.89
2018-05-12T13:07:18.516Z,36.33
2018-05-12T13:08:26.573Z,35.19
2018-05-12T13:09:34.656Z,34.97
2018-05-12T13:10:42.726Z,37.69
2018-05-12T13:11:50.797Z,35.07
2018-05-12T13:12:58.855Z,35.36
2018-05-12T13:14:06.936Z,35.07
2018-05-12T13:15:15.005Z,41.08
2018-05-12T13:16:23.075Z,41.17
2018-05-12T13:17:31.155Z,37.30
2018-05-12T13:18:39.226Z,37.69
2018-05-12T13:19:47.283Z,38.15
2018-05-12T13:20:55.366Z,38.15
2018-05-12T13:22:03.494Z,39.29
2018-05-12T13:23:11.481Z,37.38
2018-05-12T13:24:19.604Z,36.12
2018-05-12T13:25:27.636Z,36.12
2018-05-12T13:26:35.712Z,39.62
2018-05-12T13:27:43.789Z,38.96
2018-05-12T13:28:51.851Z,36.83
2018-05-12T13:29:59.937Z,38.87
2018-05-12T13:31:08.025Z,37.71
2018-05-12T13:32:16.148Z,37.71
2018-05-12T13:33:24.157Z,38.87
2018-05-12T13:34:32.192Z,41.56
2018-05-12T13:35:40.305Z,38.37
2018-05-12T13:36:48.367Z,41.25
2018-05-12T13:37:56.440Z,40.48
2018-05-12T13:39:04.521Z,41.35
2018-05-12T13:40:12.571Z,38.23
2018-05-12T13:41:20.662Z,39.20
2018-05-12T13:42:28.717Z,38.91
2018-05-12T13:43:36.804Z,40.15
2018-05-12T13:44:44.863Z,37.94
2018-05-12T13:45:52.941Z,41.82
2018-05-12T13:47:01.020Z,38.33
2018-05-12T13:48:09.083Z,40.26
2018-05-12T13:49:17.143Z,41.82
2018-05-12T13:50:25.257Z,41.04
2018-05-12T13:51:33.311Z,40.46
2018-05-12T13:52:41.354Z,38.31
2018-05-12T13:53:49.446Z,38.99
2018-05-12T13:54:57.499Z,40.73
2018-05-12T13:56:05.585Z,41.21
2018-05-12T13:57:13.652Z,40.53
2018-05-12T13:58:21.711Z,41.04
2018-05-12T13:59:29.786Z,39.88
2018-05-12T14:00:37.868Z,39.20
2018-05-12T14:01:45.940Z,39.80
2018-05-12T14:02:54.007Z,36.70
2018-05-12T14:04:02.062Z,37.77
2018-05-12T14:05:10.153Z,36.90
2018-05-12T14:06:18.229Z,39.24
2018-05-12T14:07:26.437Z,35.57
2018-05-12T14:08:34.360Z,35.27
2018-05-12T14:09:42.431Z,37.19
2018-05-12T14:10:50.508Z,36.70
2018-05-12T14:11:58.570Z,37.57
2018-05-12T14:13:06.640Z,40.17
2018-05-12T14:14:14.710Z,37.67
2018-05-12T14:15:22.788Z,38.81
2018-05-12T14:16:30.879Z,39.78
2018-05-12T14:17:39.148Z,40.94
2018-05-12T14:18:47.353Z,37.65
2018-05-12T14:19:55.115Z,37.07
2018-05-12T14:21:03.161Z,38.43
2018-05-12T14:22:11.222Z,40.65
2018-05-12T14:23:19.796Z,38.62
2018-05-12T14:24:27.359Z,37.87
2018-05-12T14:25:35.449Z,38.33
2018-05-12T14:26:43.518Z,39.09
2018-05-12T14:27:51.569Z,38.60
2018-05-12T14:28:59.663Z,38.89
2018-05-12T14:30:07.731Z,41.02
2018-05-12T14:31:15.791Z,40.44
2018-05-12T14:32:23.865Z,38.81
2018-05-12T14:33:31.921Z,41.24
2018-05-12T14:34:40.002Z,41.14
2018-05-12T14:35:48.077Z,36.98